Federal Dam, Minnesota
Current Conditions -  °F | °C
As of 8:15 AM on Tuesday 27 Jan 2015 (Local Time) from KY49 Reporting Station
Overcast Overcast  
Wind Chill: 18°   Ceiling: 700
Heat Index: 26°   Visibility: 10mi
Dew Point: 24°   Wind: 8mph
Humidity: 91%   Direction: 160°SSE
Pressure: 30.07"   Gusts: NA
Location:  47.25°N, 94.21°W
Report Text: KY49 271415Z AUTO 16007KT 10SM OVC007 M03/M05 A3007 RMK AO2 T10331046
Loading
Personal Weather Stations






























Interactive Weather Map New forecast layout! Learn more

10-Day Weather Forecast

Advertisements
Track Severe Weather on mobile